Time;durP1;ratioP1;P1;durP2;ratioP2;P2;SDS_P1;SDS_P2;PMS_P1;PMS_P2;Temp;Humidity;BMP_temperature;BMP_pressure;BME280_temperature;BME280_humidity;BME280_pressure;Samples;Min_cycle;Max_cycle;Signal;HPM_P1;HPM_P2
2023/03/12 00:01:14;;;;;;;;;40.20;33.00;;;;;11.01;66.90;100934.31;2019118;27;3586654;-77
2023/03/12 00:02:25;;;;;;;;;21.33;19.33;;;;;11.01;66.88;100929.88;2024395;28;3561675;-77
2023/03/12 00:03:39;;;;;;;;;28.20;26.00;;;;;11.01;66.71;100927.25;2044623;28;3598128;-77
2023/03/12 00:04:50;;;;;;;;;25.33;21.00;;;;;11.02;67.02;100931.63;1997649;28;3581625;-77
2023/03/12 00:06:03;;;;;;;;;29.40;27.40;;;;;11.03;67.25;100917.56;2041363;28;3598134;-77
2023/03/12 00:07:14;;;;;;;;;30.67;28.33;;;;;11.03;67.30;100916.69;1989742;28;3597133;-77
2023/03/12 00:08:26;;;;;;;;;20.67;17.33;;;;;11.04;67.37;100913.16;2031518;28;3570027;-77
2023/03/12 00:09:39;;;;;;;;;19.67;17.17;;;;;11.04;67.02;100923.66;2049375;28;2834354;-76
2023/03/12 00:10:51;;;;;;;;;20.33;19.00;;;;;11.04;67.10;100921.03;2013810;28;2829546;-77
2023/03/12 00:12:03;;;;;;;;;19.33;18.67;;;;;11.03;67.23;100907.06;2019612;28;3565856;-76
2023/03/12 00:13:15;;;;;;;;;16.33;16.33;;;;;11.05;67.42;100914.00;2016754;28;3557557;-77
2023/03/12 00:14:29;;;;;;;;;25.43;20.86;;;;;11.03;67.54;100920.19;2043430;28;2855549;-77
2023/03/12 00:15:40;;;;;;;;;22.00;21.00;;;;;11.04;67.62;100921.03;2014464;28;3579418;-77
2023/03/12 00:16:51;;;;;;;;;21.75;18.50;;;;;11.04;67.46;100923.66;2049495;28;1839931;-77
2023/03/12 00:18:02;;;;;;;;;18.00;18.00;;;;;11.03;67.43;100921.97;2000130;28;3556471;-77
2023/03/12 00:19:13;;;;;;;;;19.00;16.50;;;;;11.04;67.55;100915.78;2037291;27;2827345;-77
2023/03/12 00:20:25;;;;;;;;;17.50;16.50;;;;;11.05;67.53;100919.28;2018330;27;2824216;-77
2023/03/12 00:21:35;;;;;;;;;14.00;13.50;;;;;11.04;67.60;100921.03;2006035;28;2794025;-77
2023/03/12 00:22:48;;;;;;;;;21.33;17.67;;;;;11.05;67.27;100908.75;2042395;28;3561710;-77
2023/03/12 00:24:01;;;;;;;;;19.60;16.00;;;;;11.05;67.72;100914.88;2042983;28;2831519;-77
2023/03/12 00:25:15;;;;;;;;;16.67;14.33;;;;;11.06;67.54;100916.63;2016372;28;2823606;-78
2023/03/12 00:26:26;;;;;;;;;19.00;16.00;;;;;11.06;68.17;100913.13;2023776;28;3564803;-77
2023/03/12 00:27:38;;;;;;;;;18.20;14.40;;;;;11.05;67.70;100901.72;2051949;27;1819060;-77
2023/03/12 00:28:49;;;;;;;;;14.00;13.50;;;;;11.06;68.30;100905.22;2024088;27;2810683;-77
2023/03/12 00:30:01;;;;;;;;;17.33;15.33;;;;;11.06;68.16;100910.47;2033907;27;2822235;-77
2023/03/12 00:31:22;;;;;;;;;19.33;19.33;;;;;11.06;68.01;100894.69;2023530;28;3560637;-77
2023/03/12 00:32:36;;;;;;;;;17.00;15.80;;;;;11.06;68.18;100894.69;2042391;28;2810644;-77
2023/03/12 00:33:50;;;;;;;;;16.00;15.50;;;;;11.05;68.15;100880.69;1999742;27;2824231;-77
2023/03/12 00:35:02;;;;;;;;;17.50;14.00;;;;;11.06;68.40;100889.44;2001610;27;2810707;-77
2023/03/12 00:36:17;;;;;;;;;17.83;17.33;;;;;11.05;68.63;100883.31;2053659;27;1840404;-77
2023/03/12 00:37:31;;;;;;;;;18.80;15.20;;;;;11.04;68.46;100871.06;2020787;28;2812754;-77
2023/03/12 00:38:43;;;;;;;;;16.25;14.00;;;;;11.03;68.43;100857.06;2012474;27;1845127;-77
2023/03/12 00:39:54;;;;;;;;;26.00;19.33;;;;;11.02;68.37;100847.44;2015169;28;2858614;-77
2023/03/12 00:41:06;;;;;;;;;19.80;17.20;;;;;11.05;68.22;100871.94;2040606;28;2829396;-77
2023/03/12 00:42:18;;;;;;;;;19.50;17.00;;;;;11.05;68.57;100887.72;2014319;28;2828390;-77
2023/03/12 00:43:29;;;;;;;;;17.00;17.00;;;;;11.03;68.46;100890.41;1996946;28;2824291;-77
2023/03/12 00:44:40;;;;;;;;;18.50;18.00;;;;;11.03;68.32;100904.41;2009159;28;2829815;-77
2023/03/12 00:45:52;;;;;;;;;18.67;17.00;;;;;11.05;68.27;100914.00;2006996;28;2821190;-77
2023/03/12 00:47:03;;;;;;;;;19.33;15.00;;;;;11.05;68.53;100919.28;2021078;27;2825612;-77
2023/03/12 00:48:16;;;;;;;;;19.17;15.33;;;;;11.05;68.58;100914.88;2053931;28;1827387;-77
2023/03/12 00:49:30;;;;;;;;;16.67;14.67;;;;;11.05;68.78;100916.63;2030641;28;1829524;-77
2023/03/12 00:50:40;;;;;;;;;13.50;13.50;;;;;11.05;68.85;100922.78;1999600;28;2802405;-78
2023/03/12 00:51:52;;;;;;;;;17.00;15.50;;;;;11.06;68.52;100915.75;2015048;28;2812738;-77
2023/03/12 00:53:06;;;;;;;;;17.43;15.14;;;;;11.05;68.80;100909.63;2022324;28;1833606;-77
2023/03/12 00:54:17;;;;;;;;;12.50;12.00;;;;;11.06;68.90;100916.63;2011942;28;2784650;-77
2023/03/12 00:55:30;;;;;;;;;14.83;13.00;;;;;11.06;68.63;100927.13;2057166;27;2798667;-77
2023/03/12 00:56:41;;;;;;;;;17.00;16.50;;;;;11.07;68.83;100927.97;2020079;27;2799258;-77
2023/03/12 00:57:53;;;;;;;;;17.33;14.67;;;;;11.06;68.55;100921.00;2041540;28;2817035;-77
2023/03/12 00:59:03;;;;;;;;;17.00;17.00;;;;;11.07;68.83;100923.56;2023153;27;2829806;-77
2023/03/12 01:00:14;;;;;;;;;16.50;15.50;;;;;11.07;68.79;100920.94;2025131;27;1833660;-77
2023/03/12 01:01:28;;;;;;;;;16.57;15.71;;;;;11.08;68.86;100924.44;2029624;27;1823179;-77
2023/03/12 01:02:42;;;;;;;;;15.00;15.00;;;;;11.09;68.75;100931.41;2054895;28;1829587;-77
2023/03/12 01:03:53;;;;;;;;;16.50;13.50;;;;;11.08;68.51;100924.44;2000483;27;2806531;-77
2023/03/12 01:05:06;;;;;;;;;17.50;14.00;;;;;11.08;68.61;100925.31;2000325;27;2809641;-77
2023/03/12 01:06:16;;;;;;;;;15.00;14.00;;;;;11.10;68.53;100930.50;2001280;27;2811717;-77
2023/03/12 01:07:27;;;;;;;;;20.00;14.50;;;;;11.11;68.70;100934.88;2006589;27;2811685;-77
2023/03/12 01:08:38;;;;;;;;;17.00;16.00;;;;;11.12;68.72;100939.22;2019136;28;2823207;-77
2023/03/12 01:09:49;;;;;;;;;18.00;16.50;;;;;11.12;68.75;100942.72;2018736;27;2824252;-77
2023/03/12 01:11:00;;;;;;;;;21.00;16.00;;;;;11.12;68.98;100944.47;2010855;28;2818003;-77
2023/03/12 01:12:12;;;;;;;;;12.40;10.60;;;;;11.13;68.74;100948.84;2023385;28;1819060;-77
2023/03/12 01:13:23;;;;;;;;;14.00;12.00;;;;;11.14;68.86;100950.53;2000515;27;2783561;-77
2023/03/12 01:14:34;;;;;;;;;17.50;16.00;;;;;11.15;68.75;100954.91;2016553;28;2809618;-77
2023/03/12 01:15:45;;;;;;;;;16.00;14.50;;;;;11.16;68.85;100948.72;2015921;28;2814108;-77
2023/03/12 01:16:56;;;;;;;;;16.50;15.50;;;;;11.16;68.77;100953.97;2013471;28;2819024;-77
2023/03/12 01:18:07;;;;;;;;;17.50;17.00;;;;;11.17;68.87;100950.44;2017493;27;2825245;-77
2023/03/12 01:19:18;;;;;;;;;19.00;15.00;;;;;11.19;69.31;100958.28;2017231;28;2799322;-77
2023/03/12 01:20:29;;;;;;;;;20.00;13.00;;;;;11.19;68.87;100953.88;2015347;27;2823166;-77
2023/03/12 01:21:41;;;;;;;;;14.40;14.20;;;;;11.21;68.79;100956.50;2028299;28;1829474;-77
2023/03/12 01:22:52;;;;;;;;;16.50;15.00;;;;;11.20;68.91;100950.34;1998982;28;2804461;-77
2023/03/12 01:24:06;;;;;;;;;15.33;12.83;;;;;11.23;68.91;100950.28;2032406;27;1829468;-77
2023/03/12 01:25:18;;;;;;;;;19.33;16.00;;;;;11.23;69.11;100947.63;2000875;28;2835817;-77
2023/03/12 01:26:29;;;;;;;;;18.50;16.50;;;;;11.25;69.07;100953.69;2023067;28;2824235;-77
2023/03/12 01:27:39;;;;;;;;;14.00;13.50;;;;;11.24;69.05;100954.59;2009007;27;2801277;-77
2023/03/12 01:28:50;;;;;;;;;14.00;13.00;;;;;11.25;69.12;100951.06;2038806;28;2785000;-77
2023/03/12 01:30:05;;;;;;;;;16.00;13.20;;;;;11.26;69.08;100954.53;2042711;28;2793958;-77
2023/03/12 01:31:17;;;;;;;;;21.50;18.50;;;;;11.28;69.32;100963.28;1997883;27;2830897;-77
2023/03/12 01:32:31;;;;;;;;;17.00;13.17;;;;;11.29;69.19;100953.59;2032621;27;1827409;-77
2023/03/12 01:33:41;;;;;;;;;11.00;11.00;;;;;11.28;69.03;100951.88;2000356;28;3507530;-77
2023/03/12 01:34:52;;;;;;;;;15.00;15.00;;;;;11.30;69.02;100952.69;2031772;28;2813804;-77
2023/03/12 01:36:04;;;;;;;;;18.00;15.00;;;;;11.30;69.15;100947.41;2017439;27;2819015;-77
2023/03/12 01:37:16;;;;;;;;;18.20;14.40;;;;;11.29;69.08;100949.19;2019483;28;2814798;-77
2023/03/12 01:38:27;;;;;;;;;15.50;15.50;;;;;11.29;68.78;100948.31;2018911;28;2819055;-77
2023/03/12 01:39:39;;;;;;;;;17.00;15.00;;;;;11.28;68.83;100941.34;2017433;28;2822132;-77
2023/03/12 01:40:50;;;;;;;;;17.00;16.50;;;;;11.27;68.76;100947.50;2012321;27;2823186;-77
2023/03/12 01:42:01;;;;;;;;;18.50;14.00;;;;;11.25;68.51;100940.56;2009592;28;2816921;-77
2023/03/12 01:43:34;;;;;;;;;16.00;13.00;;;;;11.23;68.53;100939.75;2002261;27;2792972;-77
2023/03/12 01:44:52;;;;;;;;;18.60;15.00;;;;;11.21;68.68;100935.44;2044014;27;2817939;-78
2023/03/12 01:46:05;;;;;;;;;15.50;13.17;;;;;11.19;68.68;100945.13;2033359;27;1829456;-77
2023/03/12 01:47:19;;;;;;;;;17.50;14.50;;;;;11.18;68.62;100938.16;2022921;28;1844107;-77
2023/03/12 01:48:36;;;;;;;;;16.50;16.00;;;;;11.16;68.59;100938.19;1992347;28;2825266;-77
2023/03/12 01:49:49;;;;;;;;;15.00;12.00;;;;;11.14;68.54;100933.00;1991776;28;2790939;-77
2023/03/12 01:51:01;;;;;;;;;16.00;16.00;;;;;11.12;68.42;100933.94;2016353;27;2815224;-77
2023/03/12 01:52:26;;;;;;;;;15.00;13.00;;;;;11.10;68.55;100941.03;1998829;28;2798206;-77
2023/03/12 01:53:39;;;;;;;;;16.00;14.00;;;;;11.08;68.56;100933.19;1999315;28;2803375;-77
2023/03/12 01:54:57;;;;;;;;;21.00;15.50;;;;;11.07;68.27;100934.09;1999169;28;2824240;-77
2023/03/12 01:56:09;;;;;;;;;16.00;14.00;;;;;11.06;68.30;100936.78;1998895;28;2804406;-77
2023/03/12 01:57:29;;;;;;;;;15.83;14.17;;;;;11.03;68.41;100930.72;2030453;28;1833628;-77
2023/03/12 01:58:46;;;;;;;;;16.50;13.00;;;;;11.02;68.17;100929.00;2001160;27;2796117;-77
2023/03/12 02:00:06;;;;;;;;;16.25;14.00;;;;;11.01;68.80;100929.88;2037425;28;1849212;-77
2023/03/12 02:01:18;;;;;;;;;17.50;15.00;;;;;10.99;68.79;100939.59;2015424;28;2811725;-77
2023/03/12 02:02:34;;;;;;;;;20.00;14.67;;;;;10.99;68.57;100939.59;2031271;27;1827374;-77
2023/03/12 02:03:47;;;;;;;;;19.00;16.00;;;;;10.96;68.59;100934.47;2002157;27;2812750;-77
2023/03/12 02:05:13;;;;;;;;;18.67;14.00;;;;;10.97;68.44;100930.91;2031753;27;1820067;-77
2023/03/12 02:06:31;;;;;;;;;19.50;15.00;;;;;10.96;68.71;100937.09;2016769;27;1844060;-77
2023/03/12 02:07:42;;;;;;;;;16.50;14.50;;;;;10.95;68.66;100937.97;2024996;28;2811072;-77
2023/03/12 02:08:55;;;;;;;;;17.50;13.75;;;;;10.95;68.58;100940.63;2030061;27;1850332;-77
2023/03/12 02:10:06;;;;;;;;;15.00;13.00;;;;;10.95;68.80;100930.09;2023917;27;2785705;-77
2023/03/12 02:11:18;;;;;;;;;13.50;12.75;;;;;10.95;68.59;100930.09;2024758;28;1833576;-77
2023/03/12 02:12:28;;;;;;;;;9.67;8.00;;;;;10.93;68.56;100929.28;2027408;27;2754453;-77
2023/03/12 02:13:39;;;;;;;;;18.00;14.00;;;;;10.92;68.67;100922.28;2044124;28;2804501;-77
2023/03/12 02:14:50;;;;;;;;;14.00;12.00;;;;;10.91;68.61;100925.84;2006715;27;2793982;-77
2023/03/12 02:16:02;;;;;;;;;13.00;10.75;;;;;10.90;68.29;100926.75;2047589;28;1836698;-77
2023/03/12 02:17:13;;;;;;;;;13.50;11.00;;;;;10.89;68.38;100925.03;2023548;28;2791973;-77
2023/03/12 02:18:25;;;;;;;;;12.75;11.75;;;;;10.87;68.18;100924.19;2056613;27;1840966;-77
2023/03/12 02:19:48;;;;;;;;;17.00;13.00;;;;;10.85;68.23;100913.75;2025056;27;2803391;-77
2023/03/12 02:21:15;;;;;;;;;13.50;11.75;;;;;10.83;68.26;100915.56;2015370;27;1842018;-77
2023/03/12 02:22:29;;;;;;;;;12.67;12.33;;;;;10.80;68.03;100916.50;2055699;27;1819040;-77
2023/03/12 02:23:56;;;;;;;;;15.50;13.50;;;;;10.78;68.29;100920.09;2001768;28;2797150;-77
2023/03/12 02:25:41;;;;;;;;;17.50;13.00;;;;;10.75;68.01;100917.56;2038149;28;1842431;-77
2023/03/12 02:26:51;;;;;;;;;17.50;15.00;;;;;10.71;67.94;100916.81;2024853;28;2819027;-78
2023/03/12 02:28:07;;;;;;;;;15.25;11.50;;;;;10.69;68.02;100919.47;2028599;27;1846236;-77
2023/03/12 02:29:18;;;;;;;;;13.50;11.50;;;;;10.67;68.06;100920.41;2024905;27;2787771;-77
2023/03/12 02:30:30;;;;;;;;;14.00;9.00;;;;;10.65;68.24;100925.72;2039385;28;2786741;-77
2023/03/12 02:31:46;;;;;;;;;12.00;12.00;;;;;10.64;68.04;100923.16;2024372;28;2790896;-77
2023/03/12 02:33:04;;;;;;;;;15.00;13.00;;;;;10.62;68.26;100920.56;2024413;28;2808584;-77
2023/03/12 02:34:14;;;;;;;;;14.00;11.00;;;;;10.60;68.40;100924.13;2022418;28;2788243;-77
2023/03/12 02:35:25;;;;;;;;;15.50;11.50;;;;;10.58;68.23;100929.44;2040399;28;2788813;-77
2023/03/12 02:36:36;;;;;;;;;14.33;9.33;;;;;10.56;68.00;100932.13;2040953;28;3504358;-77
2023/03/12 02:37:52;;;;;;;;;13.00;10.33;;;;;10.55;68.31;100935.66;2023701;28;3510627;-77
2023/03/12 02:39:04;;;;;;;;;12.33;10.00;;;;;10.53;68.28;100939.25;2024679;27;3508584;-77
2023/03/12 02:40:26;;;;;;;;;11.00;10.00;;;;;10.51;68.05;100941.94;2023789;28;2787847;-77
2023/03/12 02:41:45;;;;;;;;;12.25;10.00;;;;;10.50;68.16;100936.66;2031846;28;1841925;-77
2023/03/12 02:42:56;;;;;;;;;12.50;11.00;;;;;10.49;68.50;100932.31;2024042;28;2788797;-77
2023/03/12 02:44:24;;;;;;;;;10.67;9.00;;;;;10.46;68.44;100943.78;2015248;28;3485656;-77
2023/03/12 02:45:38;;;;;;;;;8.67;8.67;;;;;10.45;68.34;100937.66;2050825;28;2739829;-77
2023/03/12 02:46:52;;;;;;;;;11.00;8.67;;;;;10.43;68.31;100944.75;2025644;28;3481485;-77
2023/03/12 02:48:08;;;;;;;;;9.83;7.67;;;;;10.43;68.30;100949.13;2054280;28;2735713;-77
2023/03/12 02:49:21;;;;;;;;;9.67;8.00;;;;;10.41;68.16;100956.19;2001521;28;3456494;-77
2023/03/12 02:50:31;;;;;;;;;14.00;11.67;;;;;10.39;68.71;100955.38;2022870;28;3503733;-77
2023/03/12 02:51:44;;;;;;;;;11.75;10.25;;;;;10.38;68.28;100951.88;2048443;28;1846586;-77
2023/03/12 02:52:54;;;;;;;;;11.33;8.67;;;;;10.38;68.25;100943.13;2025026;28;3487724;-77
2023/03/12 02:54:06;;;;;;;;;12.33;8.67;;;;;10.38;68.32;100951.03;2041547;27;3477308;-77
2023/03/12 02:55:17;;;;;;;;;14.00;10.75;;;;;10.38;68.48;100951.03;2039596;27;1844028;-77
2023/03/12 02:56:28;;;;;;;;;13.00;11.00;;;;;10.37;68.28;100952.78;2024818;28;2787818;-77
2023/03/12 02:57:39;;;;;;;;;10.00;8.00;;;;;10.37;68.76;100955.41;2026031;27;2753797;-77
2023/03/12 02:58:50;;;;;;;;;13.00;11.33;;;;;10.37;68.96;100951.94;2036734;28;3513789;-77
2023/03/12 03:00:01;;;;;;;;;9.00;7.67;;;;;10.36;68.58;100958.97;2033794;27;3463797;-77
2023/03/12 03:01:12;;;;;;;;;11.00;9.33;;;;;10.37;68.94;100957.19;2039262;27;2762775;-77
2023/03/12 03:02:23;;;;;;;;;11.33;8.33;;;;;10.38;69.24;100958.91;2041188;28;3480535;-76
2023/03/12 03:03:34;;;;;;;;;20.00;12.50;;;;;10.37;68.77;100957.19;2032201;27;2814838;-77
2023/03/12 03:04:44;;;;;;;;;15.00;9.00;;;;;10.37;68.87;100958.03;2043648;28;2779411;-77
2023/03/12 03:05:55;;;;;;;;;18.00;12.00;;;;;10.37;68.77;100955.41;2042241;27;2811677;-77
2023/03/12 03:07:07;;;;;;;;;17.25;9.75;;;;;10.38;68.76;100951.88;2055817;28;1856568;-77
2023/03/12 03:08:18;;;;;;;;;11.00;8.00;;;;;10.38;69.22;100956.28;2026272;27;2756511;-77
2023/03/12 03:09:29;;;;;;;;;12.67;11.00;;;;;10.39;69.39;100955.38;2054615;28;1841975;-77
2023/03/12 03:10:39;;;;;;;;;8.67;8.67;;;;;10.40;69.16;100962.34;1999349;28;2748264;-77
2023/03/12 03:11:51;;;;;;;;;11.00;8.33;;;;;10.39;69.22;100966.75;2034357;28;3481494;-77
2023/03/12 03:13:03;;;;;;;;;9.20;8.40;;;;;10.40;69.35;100965.84;2047465;28;2746502;-77
2023/03/12 03:14:14;;;;;;;;;9.33;7.00;;;;;10.40;69.24;100959.72;2022133;28;3470558;-77
2023/03/12 03:15:25;;;;;;;;;11.67;8.00;;;;;10.41;69.11;100958.81;2029221;28;3485664;-77
2023/03/12 03:16:35;;;;;;;;;11.67;7.67;;;;;10.41;69.34;100962.31;2033361;28;3476273;-77
2023/03/12 03:17:46;;;;;;;;;13.00;10.00;;;;;10.42;69.49;100960.56;2035379;28;2785692;-77
2023/03/12 03:18:58;;;;;;;;;10.50;9.00;;;;;10.43;69.44;100954.38;2057061;28;1871365;-77
2023/03/12 03:20:11;;;;;;;;;11.67;10.33;;;;;10.43;69.34;100957.00;2022598;28;2766388;-77
2023/03/12 03:21:22;;;;;;;;;10.00;9.00;;;;;10.43;69.14;100954.38;2003695;28;2769138;-77
2023/03/12 03:22:33;;;;;;;;;9.67;7.00;;;;;10.44;69.58;100958.75;2042666;27;2749378;-77
2023/03/12 03:23:46;;;;;;;;;9.33;8.33;;;;;10.45;69.94;100952.56;2050209;28;2744550;-76
2023/03/12 03:24:56;;;;;;;;;12.33;8.67;;;;;10.45;69.60;100956.06;2004002;27;3468974;-77
2023/03/12 03:26:07;;;;;;;;;8.33;7.67;;;;;10.46;69.68;100962.19;2042953;27;2734640;-77
2023/03/12 03:27:18;;;;;;;;;12.00;10.00;;;;;10.46;69.45;100960.44;2039900;28;3510656;-77
2023/03/12 03:28:29;;;;;;;;;13.00;8.00;;;;;10.49;69.76;100963.88;2020950;28;3485660;-77
2023/03/12 03:29:40;;;;;;;;;17.33;7.33;;;;;10.51;69.50;100964.72;2017119;28;3500666;-77
2023/03/12 03:31:00;;;;;;;;;12.00;9.67;;;;;10.49;69.76;100975.25;2025788;27;3503375;-77
2023/03/12 03:32:11;;;;;;;;;8.67;8.00;;;;;10.50;69.63;100969.06;2029874;27;2747264;-77
2023/03/12 03:33:25;;;;;;;;;11.00;8.00;;;;;10.50;69.84;100968.19;2048977;28;2755488;-77
2023/03/12 03:34:35;;;;;;;;;16.00;10.00;;;;;10.51;69.62;100972.59;2025118;28;3520399;-77
2023/03/12 03:35:47;;;;;;;;;11.67;9.00;;;;;10.50;69.55;100976.94;2055639;28;1835825;-77
2023/03/12 03:36:57;;;;;;;;;11.33;9.67;;;;;10.52;69.59;100984.84;2003252;28;3488774;-77
2023/03/12 03:38:08;;;;;;;;;10.00;7.33;;;;;10.51;69.63;100983.97;2051684;27;2747148;-77
2023/03/12 03:39:22;;;;;;;;;4.33;3.00;;;;;10.53;69.60;100986.56;2028813;27;2744025;-77
2023/03/12 03:40:32;;;;;;;;;12.00;7.67;;;;;10.53;69.65;100989.19;1999206;27;2764989;-77
2023/03/12 03:41:45;;;;;;;;;14.33;9.00;;;;;10.53;69.70;100992.66;2033612;28;3496152;-77
2023/03/12 03:42:55;;;;;;;;;10.00;6.33;;;;;10.53;69.82;100990.03;2026311;27;2767001;-77
2023/03/12 03:44:06;;;;;;;;;11.00;6.33;;;;;10.53;69.97;100987.41;2041539;28;2774314;-77
2023/03/12 03:45:18;;;;;;;;;10.00;5.00;;;;;10.54;70.11;100985.66;2032031;27;3476266;-77
2023/03/12 03:46:31;;;;;;;;;7.00;5.83;;;;;10.55;69.99;100984.72;2047855;28;2747125;-77
2023/03/12 03:47:45;;;;;;;;;8.33;6.50;;;;;10.55;69.98;100985.59;2029214;28;2746115;-77
2023/03/12 03:48:56;;;;;;;;;12.33;7.00;;;;;10.56;70.11;100989.97;2001644;28;3489815;-77
2023/03/12 03:50:07;;;;;;;;;11.00;5.67;;;;;10.57;69.88;100991.66;2025505;28;3486693;-77
2023/03/12 03:51:20;;;;;;;;;6.50;5.67;;;;;10.57;69.97;100989.03;2053111;27;2750268;-77
2023/03/12 03:52:31;;;;;;;;;12.33;6.67;;;;;10.57;69.77;100996.94;2026130;27;2753404;-77
2023/03/12 03:53:42;;;;;;;;;11.33;5.00;;;;;10.58;69.73;100988.16;2025614;27;3504426;-77
2023/03/12 03:54:55;;;;;;;;;4.00;4.00;;;;;10.59;70.56;100986.38;2051967;27;2744684;-77
2023/03/12 03:56:11;;;;;;;;;12.00;7.00;;;;;10.58;70.14;100988.16;2025791;28;2764931;-77
2023/03/12 03:57:25;;;;;;;;;6.17;5.00;;;;;10.58;69.85;100993.41;2052293;28;2754467;-77
2023/03/12 03:58:38;;;;;;;;;8.83;5.83;;;;;10.60;70.02;100992.47;2030158;28;2735701;-77
2023/03/12 03:59:49;;;;;;;;;9.67;5.00;;;;;10.60;69.93;100993.34;2001376;28;2753416;-78
2023/03/12 04:01:00;;;;;;;;;7.25;5.00;;;;;10.60;70.27;100992.47;2051269;28;2748189;-77
2023/03/12 04:02:14;;;;;;;;;6.83;6.00;;;;;10.60;70.16;100990.72;2053400;27;2740970;-77
2023/03/12 04:03:24;;;;;;;;;9.33;7.00;;;;;10.60;70.08;100995.09;2002785;27;2757595;-78
2023/03/12 04:04:35;;;;;;;;;9.00;5.33;;;;;10.58;69.95;101001.28;2057088;27;1828421;-77
2023/03/12 04:05:59;;;;;;;;;8.50;5.00;;;;;10.60;70.38;101003.88;2053104;27;2753420;-77
2023/03/12 04:07:10;;;;;;;;;10.67;6.33;;;;;10.59;69.88;101007.41;2002475;28;2756508;-78
2023/03/12 04:08:20;;;;;;;;;8.33;6.00;;;;;10.60;70.36;100997.75;2036434;28;3466397;-77
2023/03/12 04:09:32;;;;;;;;;8.67;6.00;;;;;10.58;69.97;101001.28;2037824;28;2759705;-78
2023/03/12 04:10:43;;;;;;;;;6.25;5.75;;;;;10.59;69.96;101007.41;2050377;28;2752380;-77
2023/03/12 04:11:54;;;;;;;;;12.33;5.00;;;;;10.60;70.43;101013.50;1999923;28;3503377;-77
2023/03/12 04:13:05;;;;;;;;;6.67;5.00;;;;;10.61;70.02;101015.25;2044009;27;2746126;-77
2023/03/12 04:14:15;;;;;;;;;10.00;7.33;;;;;10.61;70.27;101020.50;2010102;28;1829431;-78
2023/03/12 04:15:26;;;;;;;;;6.67;5.00;;;;;10.61;70.04;101028.38;2010963;28;3463798;-77
2023/03/12 04:16:37;;;;;;;;;7.00;6.00;;;;;10.61;69.82;101029.25;2051704;27;2739857;-78
2023/03/12 04:17:51;;;;;;;;;7.50;6.00;;;;;10.62;70.06;101032.75;2030225;28;2745076;-78
2023/03/12 04:19:04;;;;;;;;;7.17;6.00;;;;;10.63;69.96;101037.09;2052396;27;2748647;-77
2023/03/12 04:20:15;;;;;;;;;10.25;4.00;;;;;10.62;70.29;101027.50;2017074;27;1841975;-77
2023/03/12 04:21:26;;;;;;;;;9.33;6.00;;;;;10.63;70.16;101031.84;2039807;27;1833594;-78
2023/03/12 04:22:37;;;;;;;;;8.00;5.00;;;;;10.63;70.18;101042.34;2018959;27;2746117;-77
2023/03/12 04:23:48;;;;;;;;;9.00;4.67;;;;;10.63;70.26;101037.94;2037043;28;2755486;-78
2023/03/12 04:24:59;;;;;;;;;9.00;5.00;;;;;10.64;69.70;101046.72;2050230;28;2748193;-77
2023/03/12 04:26:12;;;;;;;;;8.83;5.67;;;;;10.64;70.29;101050.19;2026361;28;2745049;-78
2023/03/12 04:27:23;;;;;;;;;11.00;6.67;;;;;10.65;70.28;101048.41;2002412;27;3486726;-77
2023/03/12 04:28:34;;;;;;;;;9.00;7.00;;;;;10.66;70.38;101050.16;2051900;27;2746121;-78
2023/03/12 04:29:45;;;;;;;;;10.00;6.00;;;;;10.67;70.11;101057.13;2003228;27;2761773;-77
2023/03/12 04:31:00;;;;;;;;;8.00;6.00;;;;;10.67;70.26;101046.59;2051196;28;2745053;-78
2023/03/12 04:32:14;;;;;;;;;9.00;4.67;;;;;10.69;70.25;101055.34;2027620;28;2754424;-78
2023/03/12 04:33:28;;;;;;;;;11.33;5.00;;;;;10.69;70.13;101053.53;2002104;27;3488810;-78
2023/03/12 04:34:38;;;;;;;;;10.00;7.33;;;;;10.71;70.29;101052.66;2018553;28;2760673;-78
2023/03/12 04:35:51;;;;;;;;;7.33;5.00;;;;;10.72;70.32;101057.84;2048975;28;2747135;-78
2023/03/12 04:37:02;;;;;;;;;8.33;4.00;;;;;10.72;70.05;101063.09;2021069;28;2755595;-78
2023/03/12 04:38:12;;;;;;;;;7.33;5.33;;;;;10.73;70.58;101062.22;2032709;28;2742061;-78
2023/03/12 04:39:23;;;;;;;;;11.67;6.00;;;;;10.74;70.46;101066.56;2031570;28;3489841;-78
2023/03/12 04:40:34;;;;;;;;;9.00;5.00;;;;;10.74;71.00;101069.19;2047276;28;2751323;-77
2023/03/12 04:41:45;;;;;;;;;13.50;6.00;;;;;10.75;70.59;101070.91;2001143;27;2792360;-78
2023/03/12 04:42:56;;;;;;;;;4.00;3.67;;;;;10.76;70.57;101070.03;2032538;28;2747244;-78
2023/03/12 04:44:07;;;;;;;;;6.67;4.00;;;;;10.78;70.47;101080.50;2037487;28;2754517;-78
2023/03/12 04:45:18;;;;;;;;;9.67;7.00;;;;;10.79;70.63;101083.06;2037913;28;2752419;-78
2023/03/12 04:46:31;;;;;;;;;7.00;6.50;;;;;10.82;70.65;101083.88;2050037;28;2748182;-78
2023/03/12 04:47:41;;;;;;;;;9.33;6.33;;;;;10.80;70.31;101081.31;2024099;28;2756611;-78
2023/03/12 04:48:52;;;;;;;;;12.00;7.67;;;;;10.81;70.27;101085.66;2034477;28;3499205;-78
2023/03/12 04:50:05;;;;;;;;;8.25;6.75;;;;;10.83;70.50;101096.13;2051380;28;2745133;-78
2023/03/12 04:51:15;;;;;;;;;11.67;6.33;;;;;10.83;70.59;101088.25;2001320;27;3481872;-78
2023/03/12 04:52:26;;;;;;;;;8.00;5.00;;;;;10.83;70.52;101086.47;2039704;28;2750282;-78
2023/03/12 04:53:39;;;;;;;;;12.00;5.00;;;;;10.84;70.36;101092.59;2054570;28;1837827;-78
2023/03/12 04:54:49;;;;;;;;;7.00;4.00;;;;;10.83;70.65;101086.47;2018436;28;2739900;-78
2023/03/12 04:56:02;;;;;;;;;6.50;6.50;;;;;10.85;70.44;101091.69;2051677;27;2743018;-78
2023/03/12 04:57:12;;;;;;;;;11.33;5.67;;;;;10.84;70.35;101089.97;2001093;28;3497114;-77
2023/03/12 04:58:23;;;;;;;;;9.67;5.00;;;;;10.85;70.47;101089.06;2040786;28;3486058;-78
2023/03/12 04:59:35;;;;;;;;;8.00;5.50;;;;;10.87;70.41;101087.25;2043545;28;2748185;-78
2023/03/12 05:00:47;;;;;;;;;6.33;4.00;;;;;10.87;70.30;101087.25;2025838;28;2754821;-77
2023/03/12 05:01:57;;;;;;;;;8.67;5.00;;;;;10.87;70.27;101084.63;2033591;27;2747203;-78
2023/03/12 05:03:08;;;;;;;;;6.00;5.67;;;;;10.88;70.38;101081.09;2058452;27;2747136;-78
2023/03/12 05:04:19;;;;;;;;;11.67;5.33;;;;;10.89;70.53;101088.09;2019254;27;2771161;-78
2023/03/12 05:05:30;;;;;;;;;7.67;6.00;;;;;10.89;70.20;101085.44;2036949;28;3464824;-78
2023/03/12 05:06:41;;;;;;;;;7.50;4.25;;;;;10.91;70.42;101094.16;2049643;28;2744015;-77
2023/03/12 05:07:52;;;;;;;;;5.00;4.33;;;;;10.91;70.13;101088.91;2023709;28;3465884;-78
2023/03/12 05:09:03;;;;;;;;;7.67;5.67;;;;;10.90;70.59;101090.66;2050118;28;2741928;-78
2023/03/12 05:10:16;;;;;;;;;10.17;5.83;;;;;10.91;70.30;101092.38;2027660;27;2740919;-78
2023/03/12 05:11:27;;;;;;;;;9.00;6.00;;;;;10.91;70.52;101096.78;2002377;28;3473148;-78
2023/03/12 05:12:38;;;;;;;;;9.67;5.00;;;;;10.91;70.47;101094.16;2038108;28;3473172;-78
2023/03/12 05:13:49;;;;;;;;;7.67;5.33;;;;;10.90;70.71;101095.91;2051208;28;2745056;-78
2023/03/12 05:15:02;;;;;;;;;8.00;4.17;;;;;10.93;70.27;101109.88;2030299;27;2746101;-78
2023/03/12 05:16:14;;;;;;;;;8.00;4.33;;;;;10.91;70.42;101110.78;2001916;27;3467970;-78
2023/03/12 05:17:24;;;;;;;;;10.67;5.33;;;;;10.92;70.51;101106.38;2025081;27;3500251;-78
2023/03/12 05:18:35;;;;;;;;;10.67;4.33;;;;;10.92;70.51;101111.66;2039053;28;3490888;-78
2023/03/12 05:19:46;;;;;;;;;6.67;4.67;;;;;10.94;70.45;101112.47;2026849;28;3463244;-78
2023/03/12 05:21:02;;;;;;;;;5.33;4.00;;;;;10.95;70.19;101129.09;2032246;28;2745064;-77
2023/03/12 05:22:16;;;;;;;;;6.17;4.00;;;;;10.95;70.31;101124.72;2044520;28;2734103;-78
2023/03/12 05:23:27;;;;;;;;;11.67;8.00;;;;;10.95;70.46;101114.19;2021348;28;3499185;-78
2023/03/12 05:24:38;;;;;;;;;12.67;5.33;;;;;10.96;70.21;101125.59;2024118;27;3501288;-77
2023/03/12 05:25:49;;;;;;;;;14.67;4.33;;;;;10.97;70.37;101127.28;2055553;27;1851306;-77